Time;durP1;ratioP1;P1;durP2;ratioP2;P2;SDS_P1;SDS_P2;PMS_P1;PMS_P2;Temp;Humidity;BMP_temperature;BMP_pressure;BME280_temperature;BME280_humidity;BME280_pressure;Samples;Min_cycle;Max_cycle;Signal;HPM_P1;HPM_P2
2022/09/25 00:01:40;;;;;;;13.43;5.30;;;8.80;99.90;;;;;;5037337;28;20102;-49
2022/09/25 00:04:06;;;;;;;13.13;6.22;;;8.80;99.90;;;;;;5058055;28;20609;-50
2022/09/25 00:06:33;;;;;;;14.27;5.93;;;8.80;99.90;;;;;;5029034;28;20052;-46
2022/09/25 00:09:00;;;;;;;15.07;5.32;;;8.80;99.90;;;;;;5063294;28;20056;-51
2022/09/25 00:11:31;;;;;;;12.32;5.78;;;8.70;99.90;;;;;;5038682;28;20151;-48
2022/09/25 00:14:01;;;;;;;15.35;6.10;;;8.70;99.90;;;;;;5062794;28;20048;-48
2022/09/25 00:16:29;;;;;;;14.18;5.60;;;8.80;99.90;;;;;;5060589;28;20105;-50
2022/09/25 00:21:42;;;;;;;16.02;6.20;;;8.70;99.90;;;;;;5060693;28;20044;-52
2022/09/25 00:24:12;;;;;;;14.98;5.63;;;8.70;99.90;;;;;;5058865;28;20133;-52
2022/09/25 00:26:41;;;;;;;12.13;5.43;;;8.60;99.90;;;;;;5040449;28;20045;-50
2022/09/25 00:29:11;;;;;;;13.30;6.63;;;8.60;99.90;;;;;;5063093;28;20056;-51
2022/09/25 00:31:37;;;;;;;12.30;6.47;;;8.60;99.90;;;;;;5058926;28;20057;-51
2022/09/25 00:34:04;;;;;;;12.50;6.25;;;8.60;99.90;;;;;;5057182;28;20989;-53
2022/09/25 00:36:32;;;;;;;11.55;6.30;;;8.60;99.90;;;;;;5062498;28;20075;-49
2022/09/25 00:38:58;;;;;;;12.57;5.78;;;8.60;99.90;;;;;;5041190;28;20106;-52
2022/09/25 00:41:26;;;;;;;16.67;6.38;;;8.60;99.90;;;;;;5061488;28;20045;-51
2022/09/25 00:43:56;;;;;;;11.00;5.70;;;8.60;99.90;;;;;;5061224;28;20056;-53
2022/09/25 00:46:43;;;;;;;12.52;6.18;;;8.50;99.90;;;;;;5060877;28;20049;-50
2022/09/25 00:49:18;;;;;;;14.65;6.25;;;8.50;99.90;;;;;;5056692;28;20040;-51
2022/09/25 00:52:03;;;;;;;8.38;5.97;;;8.50;99.90;;;;;;5061177;28;20072;-53
2022/09/25 00:54:33;;;;;;;13.13;5.85;;;8.50;99.90;;;;;;5060752;28;20052;-51
2022/09/25 00:57:04;;;;;;;12.65;5.70;;;8.50;99.90;;;;;;5058894;28;20049;-47
2022/09/25 00:59:36;;;;;;;11.45;5.65;;;8.40;99.90;;;;;;5058187;28;20054;-49
2022/09/25 01:02:02;;;;;;;15.70;5.72;;;8.40;99.90;;;;;;5056590;28;20884;-48
2022/09/25 01:04:31;;;;;;;13.82;6.35;;;8.40;99.90;;;;;;5024595;28;20053;-49
2022/09/25 01:06:58;;;;;;;14.15;6.28;;;8.40;99.90;;;;;;5024821;28;20099;-52
2022/09/25 01:09:24;;;;;;;9.88;5.28;;;8.40;99.90;;;;;;5038036;28;20053;-48
2022/09/25 01:11:50;;;;;;;12.20;6.03;;;8.40;99.90;;;;;;5039279;28;20049;-47
2022/09/25 01:14:16;;;;;;;9.77;5.43;;;8.30;99.90;;;;;;5017886;28;20052;-51
2022/09/25 01:16:49;;;;;;;13.25;6.15;;;8.30;99.90;;;;;;5034156;28;20590;-46
2022/09/25 01:19:25;;;;;;;12.00;5.72;;;8.30;99.90;;;;;;5034883;28;20044;-47
2022/09/25 01:22:27;;;;;;;11.75;5.72;;;8.30;99.90;;;;;;5039659;28;20245;-50
2022/09/25 01:25:18;;;;;;;14.70;6.43;;;8.20;99.90;;;;;;5013043;28;20052;-50
2022/09/25 01:28:06;;;;;;;10.45;5.43;;;8.20;99.90;;;;;;5039824;28;20079;-49
2022/09/25 01:30:39;;;;;;;7.00;4.90;;;8.10;99.90;;;;;;5029643;28;20124;-49
2022/09/25 01:33:14;;;;;;;11.55;5.55;;;8.10;99.90;;;;;;5035814;28;20797;-46
2022/09/25 01:35:46;;;;;;;10.45;5.57;;;8.00;99.90;;;;;;5047319;28;20084;-48
2022/09/25 01:38:22;;;;;;;12.52;6.18;;;8.00;99.90;;;;;;5035978;28;20111;-52
2022/09/25 01:41:01;;;;;;;11.98;6.43;;;8.00;99.90;;;;;;5031500;28;20053;-50
2022/09/25 01:43:36;;;;;;;16.15;5.93;;;8.00;99.90;;;;;;5022952;28;20594;-51
2022/09/25 01:46:15;;;;;;;13.20;6.50;;;8.00;99.90;;;;;;5041244;28;20515;-53
2022/09/25 01:48:44;;;;;;;13.90;6.53;;;8.10;99.90;;;;;;5033413;28;20881;-50
2022/09/25 01:51:18;;;;;;;12.73;6.57;;;8.10;99.90;;;;;;5037223;28;20059;-49
2022/09/25 01:53:48;;;;;;;9.07;6.03;;;8.10;99.90;;;;;;5030642;28;20213;-50
2022/09/25 01:56:21;;;;;;;16.35;6.53;;;8.10;99.90;;;;;;5013121;28;20131;-52
2022/09/25 01:58:54;;;;;;;10.82;5.63;;;8.10;99.90;;;;;;5015505;28;20048;-48
2022/09/25 02:01:26;;;;;;;12.40;5.95;;;8.00;99.90;;;;;;5030477;28;20041;-48
2022/09/25 02:03:57;;;;;;;13.32;6.68;;;8.00;99.90;;;;;;5052739;28;20168;-50
2022/09/25 02:06:24;;;;;;;10.15;5.20;;;8.00;99.90;;;;;;5041069;28;20048;-50
2022/09/25 02:08:59;;;;;;;12.43;6.30;;;8.00;99.90;;;;;;5053350;28;20748;-52
2022/09/25 02:11:30;;;;;;;12.35;6.20;;;8.00;99.90;;;;;;5054729;28;20036;-51
2022/09/25 02:14:12;;;;;;;10.88;5.85;;;8.00;99.90;;;;;;5053232;28;20907;-51
2022/09/25 02:16:42;;;;;;;13.95;5.57;;;8.00;99.90;;;;;;5058754;28;20044;-50
2022/09/25 02:22:03;;;;;;;13.65;6.03;;;8.00;99.90;;;;;;5050414;28;20053;-50
2022/09/25 02:24:53;;;;;;;9.93;5.47;;;7.90;99.90;;;;;;5029019;28;20056;-53
2022/09/25 02:27:21;;;;;;;12.90;6.18;;;7.90;99.90;;;;;;5053866;28;20482;-49
2022/09/25 02:29:47;;;;;;;8.40;5.93;;;7.90;99.90;;;;;;5056608;28;20044;-46
2022/09/25 02:32:19;;;;;;;12.27;5.20;;;7.90;99.90;;;;;;5054396;28;20037;-53
2022/09/25 02:34:45;;;;;;;13.77;5.82;;;7.90;99.90;;;;;;5055120;28;20059;-51
2022/09/25 02:37:12;;;;;;;11.63;5.38;;;7.90;99.90;;;;;;5018115;28;20624;-50
2022/09/25 02:39:41;;;;;;;15.60;5.47;;;7.90;99.90;;;;;;5051425;28;20098;-53
2022/09/25 02:42:36;;;;;;;10.70;5.35;;;7.90;99.90;;;;;;5052967;28;20048;-51
2022/09/25 02:46:01;;;;;;;11.38;5.45;;;7.80;99.90;;;;;;5027785;28;20051;-52
2022/09/25 02:48:45;;;;;;;9.77;5.18;;;7.90;99.90;;;;;;4994216;28;20053;-49
2022/09/25 02:51:24;;;;;;;12.80;6.10;;;7.80;99.90;;;;;;5049367;28;20084;-52
2022/09/25 02:54:19;;;;;;;10.88;5.68;;;7.90;99.90;;;;;;5055482;28;20048;-51
2022/09/25 02:57:00;;;;;;;12.52;5.45;;;7.90;99.90;;;;;;5057935;28;20407;-52
2022/09/25 02:59:41;;;;;;;9.15;5.13;;;7.80;99.90;;;;;;5058412;28;20040;-48
2022/09/25 03:02:10;;;;;;;12.30;4.82;;;7.80;99.90;;;;;;5047240;28;20466;-49
2022/09/25 03:04:37;;;;;;;8.60;4.50;;;7.60;99.90;;;;;;5057395;28;20050;-47
2022/09/25 03:07:05;;;;;;;8.60;4.40;;;7.60;99.90;;;;;;5056256;28;20225;-50
2022/09/25 03:09:35;;;;;;;9.02;4.28;;;7.50;99.90;;;;;;5059555;28;20119;-47
2022/09/25 03:12:03;;;;;;;10.30;4.00;;;7.40;99.90;;;;;;5076919;28;20056;-50
2022/09/25 03:14:31;;;;;;;12.63;4.70;;;7.30;99.90;;;;;;5040180;28;20137;-46
2022/09/25 03:17:05;;;;;;;10.27;4.20;;;7.30;99.90;;;;;;5075693;28;20109;-51
2022/09/25 03:19:32;;;;;;;;;;;7.30;99.90;;;;;;5053230;28;20048;-47
2022/09/25 03:21:59;;;;;;;6.43;4.15;;;7.20;99.90;;;;;;5059594;28;19916;-45
2022/09/25 03:24:25;;;;;;;8.20;3.80;;;7.10;99.90;;;;;;5037258;28;20126;-46
2022/09/25 03:26:52;;;;;;;8.77;3.97;;;7.10;99.90;;;;;;5077079;28;20554;-47
2022/09/25 03:29:19;;;;;;;7.88;4.53;;;7.10;99.90;;;;;;5085837;28;20036;-47
2022/09/25 03:31:46;;;;;;;9.70;4.55;;;7.10;99.90;;;;;;5064729;28;20151;-47
2022/09/25 03:34:15;;;;;;;10.00;5.93;;;7.10;99.90;;;;;;5038794;28;20549;-50
2022/09/25 03:36:43;;;;;;;7.47;4.40;;;7.20;99.90;;;;;;5072670;28;20546;-50
2022/09/25 03:39:13;;;;;;;7.38;4.22;;;7.20;99.90;;;;;;5057432;28;20055;-47
2022/09/25 03:41:42;;;;;;;11.25;4.55;;;7.20;99.90;;;;;;5036521;28;20067;-49
2022/09/25 03:44:08;;;;;;;8.85;4.13;;;7.20;99.90;;;;;;5058522;28;20637;-48
2022/09/25 03:46:35;;;;;;;8.10;3.55;;;7.20;99.90;;;;;;5076854;28;20048;-48
2022/09/25 03:49:02;;;;;;;6.50;3.20;;;7.10;99.90;;;;;;5058248;28;20048;-47
2022/09/25 03:51:29;;;;;;;7.72;3.20;;;7.10;99.90;;;;;;5070727;28;20083;-48
2022/09/25 03:53:55;;;;;;;7.53;3.40;;;7.00;99.90;;;;;;5055571;28;20596;-49
2022/09/25 03:56:26;;;;;;;6.03;3.45;;;7.00;99.90;;;;;;5077278;28;20421;-47
2022/09/25 03:58:53;;;;;;;5.93;3.90;;;7.00;99.90;;;;;;5055083;28;20052;-50
2022/09/25 04:01:21;;;;;;;11.80;5.00;;;7.00;99.90;;;;;;5074736;28;20126;-48
2022/09/25 04:03:48;;;;;;;9.75;5.85;;;7.00;99.90;;;;;;5076578;28;20468;-51
2022/09/25 04:06:17;;;;;;;10.88;6.00;;;7.20;99.90;;;;;;5061353;28;20043;-46
2022/09/25 04:08:44;;;;;;;14.85;6.28;;;7.20;99.90;;;;;;5073703;28;20186;-46
2022/09/25 04:11:11;;;;;;;12.75;6.55;;;7.30;99.90;;;;;;5060041;28;20040;-48
2022/09/25 04:13:37;;;;;;;13.90;7.10;;;7.30;99.90;;;;;;5058177;28;20047;-48
2022/09/25 04:16:05;;;;;;;13.63;6.47;;;7.40;99.90;;;;;;5060579;28;20557;-50
2022/09/25 04:18:31;;;;;;;15.02;6.65;;;7.40;99.90;;;;;;5056613;28;20043;-50
2022/09/25 04:20:58;;;;;;;12.45;5.93;;;7.50;99.90;;;;;;5057657;28;20044;-48
2022/09/25 04:23:25;;;;;;;17.48;6.78;;;7.50;99.90;;;;;;5031081;28;20578;-49
2022/09/25 04:25:52;;;;;;;10.50;6.00;;;7.50;99.90;;;;;;5077281;28;20040;-51
2022/09/25 04:28:18;;;;;;;12.30;5.93;;;7.50;99.90;;;;;;5061384;28;20375;-50
2022/09/25 04:30:45;;;;;;;12.32;5.82;;;7.50;99.90;;;;;;5032445;28;20051;-49
2022/09/25 04:35:55;;;;;;;10.95;5.05;;;7.60;99.90;;;;;;5076277;28;20211;-53
2022/09/25 04:38:22;;;;;;;11.57;5.55;;;7.50;99.90;;;;;;5062455;28;20826;-49
2022/09/25 04:40:48;;;;;;;12.43;4.93;;;7.50;99.90;;;;;;5087138;28;20052;-49
2022/09/25 04:43:14;;;;;;;11.18;5.25;;;7.50;99.90;;;;;;5061382;28;20055;-50
2022/09/25 04:45:40;;;;;;;14.02;5.68;;;7.50;99.90;;;;;;5045916;28;20173;-53
2022/09/25 04:48:07;;;;;;;10.05;5.50;;;7.50;99.90;;;;;;5060772;28;20052;-51
2022/09/25 04:50:33;;;;;;;11.35;6.03;;;7.50;99.90;;;;;;5064234;28;20068;-51
2022/09/25 04:53:03;;;;;;;9.63;5.18;;;7.60;99.90;;;;;;5062574;28;20044;-53
2022/09/25 04:55:29;;;;;;;16.10;5.70;;;7.60;99.90;;;;;;5060525;28;20046;-49
2022/09/25 04:57:57;;;;;;;9.57;4.85;;;7.60;99.90;;;;;;5080442;28;20052;-49
2022/09/25 05:00:25;;;;;;;9.07;4.65;;;7.60;99.90;;;;;;5059254;28;20540;-50
2022/09/25 05:02:51;;;;;;;10.90;4.68;;;7.60;99.90;;;;;;5078145;28;20179;-48
2022/09/25 05:05:18;;;;;;;10.10;4.55;;;7.60;99.90;;;;;;5057367;28;20040;-46
2022/09/25 05:07:55;;;;;;;9.93;4.50;;;7.50;99.90;;;;;;5058800;28;20045;-51
2022/09/25 05:10:22;;;;;;;8.60;4.05;;;7.50;99.90;;;;;;5027703;28;20044;-51
2022/09/25 05:12:57;;;;;;;10.95;3.92;;;7.40;99.90;;;;;;5061079;28;20178;-51
2022/09/25 05:15:24;;;;;;;12.05;3.50;;;7.30;99.90;;;;;;5042047;28;20048;-51
2022/09/25 05:18:14;;;;;;;7.13;3.35;;;7.20;99.90;;;;;;5071603;28;20498;-51
2022/09/25 05:20:40;;;;;;;7.65;3.30;;;7.10;99.90;;;;;;5060945;28;20109;-49
2022/09/25 05:23:07;;;;;;;6.40;3.15;;;7.00;99.90;;;;;;5058369;28;20047;-52
2022/09/25 05:25:33;;;;;;;6.03;3.25;;;6.90;99.90;;;;;;5074493;28;20040;-51
2022/09/25 05:28:01;;;;;;;5.28;3.33;;;6.80;99.90;;;;;;5075170;28;20247;-47
2022/09/25 05:30:33;;;;;;;4.60;3.38;;;6.80;99.90;;;;;;5043018;28;20460;-48
2022/09/25 05:33:02;;;;;;;4.15;2.95;;;6.80;99.90;;;;;;5077631;28;20570;-48
2022/09/25 05:35:31;;;;;;;6.85;3.28;;;6.70;99.90;;;;;;5057012;28;20493;-48
2022/09/25 05:37:59;;;;;;;5.15;2.95;;;6.70;99.90;;;;;;5040899;28;20048;-52
2022/09/25 05:40:25;;;;;;;5.53;3.25;;;6.70;99.90;;;;;;5043456;28;20726;-51
2022/09/25 05:42:52;;;;;;;8.07;3.78;;;6.60;99.90;;;;;;5074601;28;20056;-48
2022/09/25 05:45:20;;;;;;;6.32;3.50;;;6.70;99.90;;;;;;5058368;28;20085;-53
2022/09/25 05:47:46;;;;;;;7.88;3.40;;;6.70;99.90;;;;;;5057953;28;20044;-52
2022/09/25 05:50:14;;;;;;;8.43;4.40;;;6.70;99.90;;;;;;5042766;28;20564;-53
2022/09/25 05:52:41;;;;;;;4.85;3.45;;;6.70;99.90;;;;;;5043192;28;20047;-49
2022/09/25 05:55:09;;;;;;;6.85;4.00;;;6.70;99.90;;;;;;5054537;28;20944;-48
2022/09/25 05:57:36;;;;;;;5.88;4.10;;;6.70;99.90;;;;;;5059757;28;20801;-49
2022/09/25 06:00:06;;;;;;;6.13;3.85;;;6.80;99.90;;;;;;5069110;28;20044;-50
2022/09/25 06:02:37;;;;;;;6.53;4.05;;;6.80;99.90;;;;;;5073559;28;20143;-49
2022/09/25 06:05:04;;;;;;;9.18;4.82;;;6.80;99.90;;;;;;5030344;28;20048;-51
2022/09/25 06:07:30;;;;;;;8.10;4.68;;;6.90;99.90;;;;;;5059670;28;20044;-55
2022/09/25 06:09:56;;;;;;;9.18;4.85;;;6.90;99.90;;;;;;5059616;28;20032;-49
2022/09/25 06:12:23;;;;;;;10.00;5.50;;;7.00;99.90;;;;;;5041124;28;20044;-51
2022/09/25 06:14:51;;;;;;;12.45;5.82;;;7.20;99.90;;;;;;5051114;28;20694;-52
2022/09/25 06:17:17;;;;;;;15.05;6.03;;;7.30;99.90;;;;;;5056713;28;20338;-49
2022/09/25 06:19:43;;;;;;;18.13;6.55;;;7.40;99.90;;;;;;5041350;28;20056;-48
2022/09/25 06:22:09;;;;;;;16.67;6.38;;;7.60;99.90;;;;;;5072128;28;20499;-48
2022/09/25 06:24:35;;;;;;;11.45;6.30;;;7.70;99.90;;;;;;5077352;28;20049;-52
2022/09/25 06:27:01;;;;;;;17.50;6.30;;;7.80;99.90;;;;;;5080570;28;20074;-51
2022/09/25 06:29:27;;;;;;;12.23;6.15;;;8.00;99.90;;;;;;5038396;28;20048;-52
2022/09/25 06:31:53;;;;;;;13.35;6.57;;;8.10;99.90;;;;;;5091872;27;20044;-52
2022/09/25 06:34:19;;;;;;;11.00;5.72;;;8.20;99.90;;;;;;5040240;28;20056;-51
2022/09/25 06:36:45;;;;;;;11.93;6.03;;;8.30;99.90;;;;;;5060944;28;20775;-49
2022/09/25 06:39:11;;;;;;;11.48;5.55;;;8.40;99.90;;;;;;5058897;28;20050;-50
2022/09/25 06:41:39;;;;;;;11.07;5.43;;;8.50;99.90;;;;;;5040978;28;20490;-52
2022/09/25 06:44:05;;;;;;;12.90;6.90;;;8.60;99.90;;;;;;5074373;28;20567;-49
2022/09/25 06:46:31;;;;;;;11.60;6.43;;;8.70;99.90;;;;;;5058647;28;20086;-51
2022/09/25 06:48:58;;;;;;;9.70;4.80;;;8.90;99.90;;;;;;5058164;28;20173;-52
2022/09/25 06:51:27;;;;;;;8.82;5.20;;;9.20;99.90;;;;;;5079488;28;20044;-51
2022/09/25 06:53:54;;;;;;;8.65;3.92;;;9.40;99.90;;;;;;5077287;28;20055;-51
2022/09/25 06:56:20;;;;;;;7.18;3.70;;;9.70;99.90;;;;;;5043685;28;20060;-51
2022/09/25 06:58:46;;;;;;;11.05;3.58;;;9.90;99.90;;;;;;5071062;28;20082;-51
2022/09/25 07:01:12;;;;;;;8.55;3.15;;;10.30;99.90;;;;;;5057838;28;20048;-50
2022/09/25 07:03:46;;;;;;;7.75;2.80;;;10.50;99.90;;;;;;5054418;28;20059;-49
2022/09/25 07:06:17;;;;;;;4.68;2.47;;;10.80;99.90;;;;;;5035563;28;20044;-52
2022/09/25 07:08:44;;;;;;;6.15;2.20;;;11.10;99.90;;;;;;5039674;28;20514;-53
2022/09/25 07:11:19;;;;;;;8.65;2.00;;;11.30;99.90;;;;;;5070176;28;20513;-50
2022/09/25 07:13:46;;;;;;;6.72;1.88;;;11.60;99.90;;;;;;5037828;28;21725;-48
2022/09/25 07:16:16;;;;;;;4.00;1.98;;;11.80;99.90;;;;;;5069487;28;20548;-49
2022/09/25 07:18:43;;;;;;;5.38;1.90;;;12.10;99.90;;;;;;5084227;28;20052;-54
2022/09/25 07:21:17;;;;;;;6.15;2.22;;;12.40;99.90;;;;;;5069378;28;20816;-54
2022/09/25 07:23:47;;;;;;;6.05;2.05;;;12.60;99.90;;;;;;5055783;28;20143;-55
2022/09/25 07:26:22;;;;;;;9.70;2.63;;;12.80;99.90;;;;;;5057417;28;20047;-51
2022/09/25 07:28:58;;;;;;;6.03;1.63;;;13.20;99.90;;;;;;5055665;28;20040;-49
2022/09/25 07:31:30;;;;;;;6.30;2.33;;;13.60;99.90;;;;;;5077307;28;20071;-50
2022/09/25 07:33:59;;;;;;;5.65;1.30;;;13.80;99.90;;;;;;5087169;28;20052;-49
2022/09/25 07:36:25;;;;;;;5.07;1.25;;;14.10;99.90;;;;;;5055891;28;20052;-47
2022/09/25 07:38:52;;;;;;;5.70;1.67;;;14.30;99.90;;;;;;5072424;28;20058;-47
2022/09/25 07:41:21;;;;;;;4.60;1.48;;;14.50;99.90;;;;;;5055423;28;20127;-51
2022/09/25 07:43:57;;;;;;;6.32;1.50;;;14.60;99.90;;;;;;5043824;28;20048;-49
2022/09/25 07:46:27;;;;;;;5.63;1.50;;;15.00;99.90;;;;;;5077223;28;20040;-51
2022/09/25 07:48:53;;;;;;;5.25;1.25;;;15.30;99.90;;;;;;5055964;28;20048;-50
2022/09/25 07:51:24;;;;;;;7.30;1.58;;;15.70;99.90;;;;;;5023173;28;20059;-56
2022/09/25 07:53:50;;;;;;;3.95;1.42;;;16.10;99.90;;;;;;5060777;28;20056;-54
2022/09/25 07:56:16;;;;;;;3.78;1.17;;;16.30;99.90;;;;;;5046982;28;20132;-57
2022/09/25 07:58:42;;;;;;;4.88;1.00;;;16.80;99.90;;;;;;5094417;28;20048;-55
2022/09/25 08:01:12;;;;;;;5.07;1.25;;;16.90;99.90;;;;;;5081433;28;20803;-56
2022/09/25 08:03:39;;;;;;;5.22;1.20;;;17.20;99.90;;;;;;5080530;28;20085;-57
2022/09/25 08:06:11;;;;;;;9.35;1.83;;;17.60;99.90;;;;;;5082678;28;20741;-50
2022/09/25 08:08:39;;;;;;;4.53;1.13;;;17.80;99.90;;;;;;5079902;28;20052;-48
2022/09/25 08:11:12;;;;;;;3.95;1.52;;;18.10;99.90;;;;;;5081899;28;20101;-47
2022/09/25 08:13:40;;;;;;;5.10;1.08;;;18.60;99.90;;;;;;5083000;28;20048;-50
2022/09/25 08:16:14;;;;;;;2.95;1.05;;;18.80;99.90;;;;;;5078983;28;20074;-50
2022/09/25 08:18:45;;;;;;;4.65;1.30;;;19.20;99.90;;;;;;5045894;28;20044;-50
2022/09/25 08:21:13;;;;;;;3.63;1.02;;;19.50;99.90;;;;;;5079222;28;20071;-50
2022/09/25 08:23:40;;;;;;;3.08;0.88;;;19.80;99.90;;;;;;5064736;28;20045;-52
2022/09/25 08:26:06;;;;;;;5.70;1.00;;;20.20;99.90;;;;;;5056546;28;20044;-50
2022/09/25 08:28:33;;;;;;;5.82;1.25;;;20.50;99.90;;;;;;5082836;28;20070;-47
2022/09/25 08:31:03;;;;;;;5.57;1.00;;;20.50;99.90;;;;;;5042920;28;20380;-49
2022/09/25 08:33:31;;;;;;;4.55;1.10;;;20.60;99.90;;;;;;5081608;28;20096;-52
2022/09/25 08:35:59;;;;;;;11.13;1.15;;;20.60;99.90;;;;;;5062109;28;20052;-51
2022/09/25 08:38:26;;;;;;;8.05;2.35;;;20.70;99.90;;;;;;5041834;28;20048;-50
2022/09/25 08:41:02;;;;;;;5.32;1.15;;;21.00;99.90;;;;;;5030511;28;20051;-50
2022/09/25 08:43:30;;;;;;;6.43;1.30;;;21.50;99.90;;;;;;5061750;28;20044;-51
2022/09/25 08:49:01;;;;;;;4.32;0.90;;;21.50;99.90;;;;;;5060485;28;20127;-51
2022/09/25 08:51:49;;;;;;;6.28;1.20;;;21.60;99.90;;;;;;5027643;28;20828;-56
2022/09/25 08:54:25;;;;;;;4.25;0.82;;;21.40;99.90;;;;;;5080544;28;20081;-57
2022/09/25 08:56:58;;;;;;;5.65;1.60;;;21.80;99.90;;;;;;5077777;28;20071;-56
2022/09/25 08:59:42;;;;;;;4.85;0.77;;;21.30;99.90;;;;;;5078858;28;20047;-57
2022/09/25 09:02:44;;;;;;;4.97;1.15;;;21.80;99.90;;;;;;5059141;28;20082;-56
2022/09/25 09:05:19;;;;;;;4.70;0.90;;;22.30;99.00;;;;;;5063586;28;20087;-51
2022/09/25 09:07:52;;;;;;;4.30;0.80;;;22.40;99.90;;;;;;5043948;28;20864;-51
2022/09/25 09:10:35;;;;;;;6.10;1.17;;;22.70;99.90;;;;;;5077101;28;20052;-52
2022/09/25 09:13:08;;;;;;;5.13;1.77;;;23.30;99.70;;;;;;5092997;28;20041;-51
2022/09/25 09:15:42;;;;;;;5.88;1.20;;;22.70;99.30;;;;;;5078389;28;20048;-53
2022/09/25 09:18:39;;;;;;;9.52;4.03;;;21.70;98.60;;;;;;5057578;28;20153;-53
2022/09/25 09:21:27;;;;;;;6.25;3.72;;;20.70;99.90;;;;;;5061924;28;20044;-49
2022/09/25 09:24:02;;;;;;;10.00;6.38;;;19.80;99.90;;;;;;5059168;28;20040;-51
2022/09/25 09:26:58;;;;;;;7.45;3.85;;;19.30;99.90;;;;;;5080473;28;20051;-49
2022/09/25 09:29:46;;;;;;;7.32;3.80;;;18.60;99.90;;;;;;5060864;28;20071;-50
2022/09/25 09:32:29;;;;;;;6.45;2.42;;;18.30;99.90;;;;;;5077603;28;20040;-54
2022/09/25 09:35:11;;;;;;;11.07;9.27;;;18.00;99.90;;;;;;5080570;28;20048;-54
2022/09/25 09:37:52;;;;;;;26.42;20.23;;;17.90;99.90;;;;;;5046217;28;20137;-49
2022/09/25 09:40:47;;;;;;;4.60;1.55;;;17.70;99.90;;;;;;5029051;28;20402;-49
2022/09/25 09:43:51;;;;;;;7.63;1.70;;;17.50;99.90;;;;;;5046069;28;20085;-50
2022/09/25 09:46:27;;;;;;;8.20;1.30;;;17.60;99.90;;;;;;5069390;28;20048;-50
2022/09/25 09:49:34;;;;;;;4.05;1.00;;;17.70;99.90;;;;;;5048198;28;20600;-51
2022/09/25 09:52:20;;;;;;;5.60;1.27;;;17.50;99.90;;;;;;4995532;28;20232;-50
2022/09/25 09:54:58;;;;;;;3.97;1.02;;;17.30;99.90;;;;;;5053500;28;20056;-50
2022/09/25 09:57:32;;;;;;;4.43;1.17;;;16.70;99.90;;;;;;5074559;28;20142;-47
2022/09/25 10:00:05;;;;;;;6.32;2.22;;;16.30;99.90;;;;;;5058352;28;20128;-53
2022/09/25 10:02:42;;;;;;;5.10;1.70;;;16.00;99.90;;;;;;5076043;28;20044;-53
2022/09/25 10:05:18;;;;;;;6.05;1.05;;;15.70;99.90;;;;;;5057541;28;20121;-49
2022/09/25 10:07:47;;;;;;;9.23;1.73;;;15.50;99.90;;;;;;5078779;28;20078;-50
2022/09/25 10:10:15;;;;;;;3.30;0.90;;;15.30;99.90;;;;;;5040836;28;20052;-49
2022/09/25 10:12:51;;;;;;;5.25;1.95;;;15.30;99.90;;;;;;5054704;28;20506;-48
2022/09/25 10:15:28;;;;;;;4.00;1.25;;;15.50;99.90;;;;;;5056599;28;20044;-51
2022/09/25 10:17:57;;;;;;;3.92;0.88;;;16.10;99.90;;;;;;5075314;28;20051;-47
2022/09/25 10:20:29;;;;;;;4.22;1.23;;;16.80;99.90;;;;;;5072299;28;20569;-46
2022/09/25 10:22:58;;;;;;;4.47;0.90;;;17.70;99.90;;;;;;5057539;28;20040;-50
2022/09/25 10:25:38;;;;;;;3.72;0.80;;;18.20;99.90;;;;;;5059195;28;20044;-53
2022/09/25 10:28:26;;;;;;;4.93;0.90;;;18.10;99.90;;;;;;5077107;28;20735;-53
2022/09/25 10:30:53;;;;;;;4.13;1.52;;;18.20;99.90;;;;;;5076268;28;20055;-52
2022/09/25 10:33:25;;;;;;;3.85;0.80;;;18.70;99.90;;;;;;5079848;28;20048;-52
2022/09/25 10:35:53;;;;;;;;;;;18.80;99.90;;;;;;5058740;28;20052;-54
2022/09/25 10:38:40;;;;;;;3.88;0.98;;;18.70;99.90;;;;;;5073391;28;20280;-51
2022/09/25 10:41:12;;;;;;;7.20;1.65;;;18.90;99.90;;;;;;5074790;28;20052;-49
2022/09/25 10:44:00;;;;;;;26.77;23.95;;;18.90;99.90;;;;;;5039710;28;20042;-50
2022/09/25 10:52:09;;;;;;;9.85;8.05;;;18.80;99.90;;;;;;5077235;28;20051;-52
2022/09/25 10:54:36;;;;;;;7.07;5.63;;;18.80;99.90;;;;;;5054903;28;20739;-50
2022/09/25 10:57:37;;;;;;;4.38;1.35;;;18.60;99.90;;;;;;5075204;28;20048;-48
2022/09/25 11:00:22;;;;;;;14.68;12.82;;;18.80;99.90;;;;;;5061900;28;20044;-52
2022/09/25 11:03:10;;;;;;;13.70;11.25;;;18.70;99.90;;;;;;5059177;28;20090;-49
2022/09/25 11:05:37;;;;;;;5.22;1.45;;;18.80;99.90;;;;;;5024895;28;21223;-49
2022/09/25 11:08:06;;;;;;;4.45;1.50;;;18.70;99.90;;;;;;5072790;28;20057;-52
2022/09/25 11:10:46;;;;;;;12.23;7.75;;;19.00;99.90;;;;;;5041037;28;20043;-51
2022/09/25 11:13:47;;;;;;;4.65;2.08;;;19.20;99.90;;;;;;5073103;28;20059;-51
2022/09/25 11:16:18;;;;;;;3.42;0.70;;;19.20;99.90;;;;;;5056989;28;20047;-49
2022/09/25 11:19:19;;;;;;;8.35;5.05;;;19.90;99.90;;;;;;5073613;28;20052;-48
2022/09/25 11:21:56;;;;;;;8.50;4.83;;;20.10;99.90;;;;;;5038696;28;20052;-42
2022/09/25 11:24:57;;;;;;;4.32;1.65;;;20.20;99.90;;;;;;5041641;28;20550;-46
2022/09/25 11:27:35;;;;;;;4.28;1.55;;;20.10;99.90;;;;;;5077767;28;20109;-46
2022/09/25 11:30:21;;;;;;;3.17;0.60;;;21.10;99.90;;;;;;5075720;28;20040;-47
2022/09/25 11:32:47;;;;;;;4.13;1.38;;;21.20;99.90;;;;;;5063072;28;20482;-48
2022/09/25 11:35:53;;;;;;;1.80;0.73;;;20.50;99.90;;;;;;5077194;28;20820;-47
2022/09/25 11:41:48;;;;;;;4.05;0.88;;;19.70;99.90;;;;;;5076531;28;20170;-48
2022/09/25 11:44:38;;;;;;;3.55;0.80;;;19.20;99.90;;;;;;5039832;28;20100;-48
2022/09/25 11:47:23;;;;;;;5.93;1.02;;;18.80;99.90;;;;;;5059093;28;20498;-45
2022/09/25 11:49:52;;;;;;;4.55;0.80;;;18.50;99.90;;;;;;5080497;28;20052;-47
2022/09/25 11:52:24;;;;;;;3.20;0.70;;;18.20;99.90;;;;;;5078394;28;20744;-46
2022/09/25 11:55:02;;;;;;;3.30;0.70;;;18.00;99.90;;;;;;5060108;28;20673;-48
2022/09/25 11:57:41;;;;;;;4.47;0.98;;;17.90;99.90;;;;;;5076429;28;20035;-45
2022/09/25 12:00:19;;;;;;;2.97;0.70;;;17.80;99.90;;;;;;5054424;28;20109;-48
2022/09/25 12:03:13;;;;;;;4.45;0.70;;;17.70;99.90;;;;;;5074119;28;20060;-47
2022/09/25 12:06:01;;;;;;;5.20;0.85;;;17.70;99.90;;;;;;5057396;28;20051;-45
2022/09/25 12:08:40;;;;;;;3.42;0.80;;;17.60;99.90;;;;;;5056919;28;20483;-43
2022/09/25 12:11:27;;;;;;;2.50;0.60;;;17.70;99.90;;;;;;5057081;28;20705;-43
2022/09/25 12:14:12;;;;;;;4.60;0.90;;;17.70;99.90;;;;;;5058648;28;20121;-45
2022/09/25 12:16:58;;;;;;;4.30;0.65;;;17.40;99.90;;;;;;5059946;28;20044;-48
2022/09/25 12:19:41;;;;;;;2.60;0.60;;;17.50;99.90;;;;;;5076048;28;20051;-44
2022/09/25 12:22:10;;;;;;;5.10;0.70;;;17.60;99.90;;;;;;5074244;28;20129;-45
2022/09/25 12:25:22;;;;;;;3.13;1.00;;;17.40;99.90;;;;;;5043894;28;20017;-51
2022/09/25 12:27:57;;;;;;;5.30;1.00;;;17.40;99.90;;;;;;5017885;28;20150;-51
2022/09/25 12:30:56;;;;;;;4.40;1.58;;;17.40;99.90;;;;;;5036409;28;20087;-45
2022/09/25 12:33:34;;;;;;;2.58;0.85;;;17.50;99.90;;;;;;5066303;28;20063;-43
2022/09/25 12:36:35;;;;;;;4.90;0.80;;;17.50;99.90;;;;;;5056228;28;20059;-46
2022/09/25 12:39:20;;;;;;;3.17;0.80;;;18.10;99.90;;;;;;5079203;28;20052;-46
2022/09/25 12:42:12;;;;;;;3.28;0.77;;;20.10;99.90;;;;;;5078325;28;20052;-47
2022/09/25 12:44:55;;;;;;;3.97;0.60;;;21.30;99.90;;;;;;5061992;28;20055;-48
2022/09/25 12:47:39;;;;;;;3.65;0.57;;;22.40;99.90;;;;;;5024673;28;20052;-50
2022/09/25 12:50:15;;;;;;;5.78;1.10;;;23.30;94.90;;;;;;5060415;28;20040;-47
2022/09/25 12:52:51;;;;;;;2.75;0.70;;;24.40;90.90;;;;;;5073709;28;20059;-46
2022/09/25 12:55:47;;;;;;;2.63;0.65;;;24.70;85.20;;;;;;5057429;28;20036;-49
2022/09/25 12:58:20;;;;;;;2.38;0.60;;;25.00;76.10;;;;;;5076197;28;20048;-48
2022/09/25 13:00:51;;;;;;;2.50;0.43;;;25.00;74.40;;;;;;5060509;28;20910;-48
2022/09/25 13:03:40;;;;;;;2.72;0.85;;;24.20;73.90;;;;;;5075850;28;20521;-49
2022/09/25 13:06:41;;;;;;;5.18;1.75;;;23.70;78.50;;;;;;5059650;28;20046;-49
2022/09/25 13:09:30;;;;;;;2.65;0.60;;;22.70;82.10;;;;;;5078005;28;20044;-49
2022/09/25 13:12:08;;;;;;;1.98;0.40;;;21.40;87.80;;;;;;5076284;28;20044;-47
2022/09/25 13:14:51;;;;;;;1.95;0.50;;;20.30;95.00;;;;;;5078731;28;20039;-47
2022/09/25 13:17:17;;;;;;;2.63;0.73;;;19.50;99.90;;;;;;5076399;28;20044;-47
2022/09/25 13:19:43;;;;;;;2.97;0.50;;;18.70;99.90;;;;;;5059510;28;20044;-48
2022/09/25 13:22:19;;;;;;;3.05;0.82;;;18.60;99.90;;;;;;5040245;28;20059;-47
2022/09/25 13:24:55;;;;;;;3.38;0.75;;;18.20;99.90;;;;;;5076754;28;20582;-50
2022/09/25 13:27:24;;;;;;;2.47;0.70;;;17.90;99.90;;;;;;5076209;28;20151;-50
2022/09/25 13:29:56;;;;;;;2.67;0.77;;;17.70;99.90;;;;;;5025752;28;20508;-48
2022/09/25 13:32:27;;;;;;;3.63;0.80;;;17.70;99.90;;;;;;5059235;28;20043;-43
2022/09/25 13:34:59;;;;;;;2.08;0.60;;;17.90;99.90;;;;;;5061592;28;20577;-46
2022/09/25 13:37:30;;;;;;;2.00;0.57;;;18.20;99.90;;;;;;5043754;28;20086;-47
2022/09/25 13:42:46;;;;;;;4.75;0.80;;;20.20;99.90;;;;;;5089459;28;20135;-47
2022/09/25 13:45:33;;;;;;;2.97;0.50;;;21.90;99.90;;;;;;5076076;28;20048;-50